• Join FlightAware (Why Join?)
  • Login
  • US Flag 
07:30PM EST


 

Airport Tracker/Info


-or-


 

Live Flight TrackerFlight Track Log ✈ DAL245 ✈ 09-May-2013 ✈ LIRF / FCO - KJFK

Flight Track Log - Related Links

Times and Time Zones

All times are in EDT time to prevent confusion due to time zone crossing. See the DAL245 flight status page for this flight to view local times or setup timezone preferences in your user account.

Time Position Orientation Groundspeed Altitude Reporting Facility
EDT Latitude Longitude Course Direction KTS MPH feet Rate Location/Type
07:03AM 41.8432 12.1083 290° West  Level FlightAware Approximate
07:04AM 41.9008 11.9777 294° West  Level Estimated
07:05AM 41.9582 11.8469 301° West  Level Estimated
07:06AM 42.0155 11.7158 299° West  Level Estimated
07:07AM 42.0701 11.5825 299° West  Level FlightAware Approximate
07:08AM 42.1271 11.4509 302° West  Level Estimated
07:09AM 42.1871 11.3218 302° West  Level FlightAware Approximate
07:10AM 42.2471 11.1924 302° West  Level FlightAware Approximate
07:11AM 42.3036 11.0602 298° West  Level Estimated
07:12AM 42.3568 10.9252 298° West  Level FlightAware Approximate
07:13AM 42.4130 10.7925 299° West  Level Estimated
07:14AM 42.4669 10.6579 299° West  Level FlightAware Approximate
07:15AM 42.5228 10.5247 300° West  Level Estimated
07:16AM 42.5786 10.3913 300° West  Level FlightAware Approximate
07:17AM 42.6342 10.2576 300° West  Level Estimated
07:18AM 42.6897 10.1237 300° West  Level Estimated
07:18AM 41.8100 12.2290 300° West 170 196 200  Level FlightAware
07:18AM 41.8320 12.2170 338° Northwest 175 201 1,300 1,980 Climbing FlightAware
07:18AM 41.8390 12.2040 306° West 182 209 1,700 1,500 Climbing FlightAware
07:18AM 41.8390 12.1990 270° West 185 213 1,800 1,680 Climbing FlightAware
07:19AM 41.8350 12.1760 257° West 181 208 2,400 1,680 Climbing FlightAware
07:19AM 41.8230 12.1470 241° Southwest 178 205 3,200 1,320 Climbing FlightAware
07:19AM 41.8170 12.1310 243° Southwest 196 226 3,400 720 Climbing FlightAware
07:20AM 41.8050 12.1010 242° Southwest 225 259 3,700 840 Climbing FlightAware
07:20AM 41.8010 12.0560 263° West 257 296 4,200 1,380 Climbing FlightAware
07:21AM 41.8030 12.0160 274° West 270 311 5,000 2,160 Climbing FlightAware
07:21AM 41.8050 11.9660 273° West 276 318 6,200 2,160 Climbing FlightAware
07:22AM 41.8060 11.9120 271° West 287 330 7,200 2,280 Climbing FlightAware
07:22AM 41.8050 11.8580 269° West 286 329 8,500 2,280 Climbing FlightAware
07:23AM 41.8050 11.8150 270° West 293 337 9,300 1,980 Climbing FlightAware
07:23AM 41.8050 11.7460 270° West 304 350 10,500 1,320 Climbing FlightAware
07:24AM 41.8050 11.6440 270° West 355 409 11,200 1,080 Climbing FlightAware
07:25AM 41.8050 11.5560 270° West 372 428 12,200 1,680 Climbing FlightAware
07:26AM 41.8050 11.4470 270° West 383 441 13,600 1,920 Climbing FlightAware
07:26AM 41.8090 11.3540 273° West 379 436 15,000 2,040 Climbing FlightAware
07:26AM 41.8200 11.3210 294° West 372 428 15,500 1,920 Climbing FlightAware
07:27AM 41.8640 11.2510 310° West 375 432 16,800 1,500 Climbing FlightAware
07:28AM 41.9060 11.1950 315° West 381 438 17,700 1,440 Climbing FlightAware
07:29AM 41.9710 11.1090 315° West 391 450 18,900 1,560 Climbing FlightAware
07:29AM 42.0230 11.0400 315° West 391 450 19,800 1,440 Climbing FlightAware
07:30AM 42.0810 10.9610 315° West 393 452 21,000 1,380 Climbing FlightAware
07:31AM 42.1350 10.8870 315° West 401 461 21,800 1,080 Climbing FlightAware
07:31AM 42.1950 10.8050 315° West 415 478 22,600 1,020 Climbing FlightAware
07:32AM 42.2480 10.7330 315° West 416 479 23,300 1,260 Climbing FlightAware
07:33AM 42.3090 10.6500 315° West 420 483 24,400 1,620 Climbing FlightAware
07:33AM 42.3650 10.5730 315° West 411 473 25,600 1,980 Climbing FlightAware
07:34AM 42.4180 10.5000 315° West 394 453 27,100 1,320 Climbing FlightAware
07:35AM 42.4750 10.4200 314° West 401 461 27,500 720 Climbing FlightAware
07:36AM 42.5290 10.3460 315° West 401 461 28,200 1,020 Climbing FlightAware
07:36AM 42.5810 10.2740 314° West 400 460 28,900 840 Climbing FlightAware
07:37AM 42.6410 10.1900 314° West 413 475 29,400 660 Climbing FlightAware
07:38AM 42.6950 10.1140 314° West 417 480 29,900 420 Climbing FlightAware
07:38AM 42.7570 10.0280 314° West 423 487 30,000 240 Climbing FlightAware
07:39AM 42.8460 9.9020 314° West 440 506 30,400 600 Climbing FlightAware
07:40AM 42.9070 9.8160 314° West 431 496 31,100 900 Climbing FlightAware
07:41AM 42.9540 9.7310 307° West 428 493 31,700 960 Climbing FlightAware
07:42AM 42.9960 9.6250 298° West 427 491 32,500 960 Climbing FlightAware
07:42AM 43.0260 9.5240 292° West 421 484 33,100 780 Climbing FlightAware
07:43AM 43.0530 9.4270 291° West 418 481 33,600 600 Climbing FlightAware
07:44AM 43.0860 9.3130 292° West 419 482 34,000 240 Climbing FlightAware
07:44AM 43.1150 9.2130 292° West 422 486 34,000  Level FlightAware
07:45AM 43.1470 9.1010 291° West 423 487 34,000  Level FlightAware
07:46AM 43.1750 9.0000 291° West 423 487 34,000  Level FlightAware
07:47AM 43.2110 8.8910 294° West 424 488 34,000  Level FlightAware
07:47AM 43.2560 8.8010 304° West 428 493 34,000  Level FlightAware
07:50AM 43.3805 8.4813 298° West  Level FlightAware Approximate
07:51AM 43.4343 8.3419 298° West  Level FlightAware Approximate
07:51AM 43.5340 8.2310 298° West 432 497 34,000  Level FlightAware
07:52AM 43.5860 8.1250 304° West 432 497 34,000  Level FlightAware
07:53AM 43.6310 8.0340 304° West 432 497 34,000  Level FlightAware
07:53AM 43.6760 7.9430 304° West 431 496 34,000  Level FlightAware
07:54AM 43.7280 7.8410 305° West 433 498 34,000  Level FlightAware
07:55AM 43.7730 7.7510 305° West 432 497 34,000  Level FlightAware
07:56AM 43.8240 7.6460 304° West 431 496 34,000  Level FlightAware
07:56AM 43.8670 7.5560 304° West 431 496 34,000  Level FlightAware
07:57AM 43.9100 7.4650 303° West 432 497 34,000  Level FlightAware
07:58AM 43.9590 7.3600 303° West 433 498 34,000  Level FlightAware
07:58AM 44.0040 7.2650 303° West 433 498 34,000  Level FlightAware
07:59AM 44.0490 7.1710 304° West 434 499 34,000  Level FlightAware
08:00AM 44.1080 7.0450 303° West 433 498 34,000  Level FlightAware
08:01AM 44.1530 6.9490 303° West 433 498 34,000  Level FlightAware
08:01AM 44.1970 6.8550 303° West 433 498 34,000  Level FlightAware
08:02AM 44.2400 6.7610 303° West 435 501 34,000  Level FlightAware
08:03AM 44.2840 6.6660 303° West 435 501 34,000  Level FlightAware
08:03AM 44.3260 6.5740 303° West 433 498 34,000  Level FlightAware
08:04AM 44.3700 6.4780 303° West 433 498 34,000 420 Level FlightAware
08:05AM 44.4120 6.3870 303° West 428 493 34,600 660 Climbing FlightAware
08:05AM 44.4560 6.2910 303° West 428 493 34,900 540 Climbing FlightAware
08:06AM 44.5040 6.1860 303° West 427 491 35,400 600 Climbing FlightAware
08:07AM 44.5460 6.0940 303° West 423 487 35,800 420 Climbing FlightAware
08:07AM 44.5910 5.9930 302° West 424 488 36,000 120 Climbing FlightAware
08:08AM 44.6350 5.8970 303° West 420 483 36,000  Level FlightAware
08:09AM 44.6730 5.8120 302° West 420 483 36,000  Level FlightAware
08:10AM 44.7190 5.7080 302° West 422 486 36,000  Level FlightAware
08:10AM 44.7600 5.6170 302° West 422 486 36,000  Level FlightAware
08:11AM 44.8020 5.5210 302° West 423 487 36,000  Level FlightAware
08:12AM 44.8490 5.4170 303° West 423 487 36,000  Level FlightAware
08:12AM 44.8920 5.3220 303° West 423 487 36,000  Level FlightAware
08:13AM 44.9390 5.2190 303° West 422 486 36,000  Level FlightAware
08:14AM 44.9810 5.1260 303° West 422 486 36,000  Level FlightAware
08:14AM 45.0130 5.0570 303° West 422 486 36,000  Level FlightAware
08:15AM 45.0550 4.9630 302° West 421 484 36,000  Level FlightAware
08:16AM 45.0890 4.8550 294° West 414 476 36,000  Level FlightAware
08:16AM 45.1190 4.7480 292° West 414 476 36,000  Level FlightAware
08:17AM 45.1520 4.6350 293° West 413 475 36,000  Level FlightAware
08:18AM 45.1800 4.5370 292° West 412 474 36,000  Level FlightAware
08:18AM 45.2080 4.4370 292° West 412 474 36,000  Level FlightAware
08:19AM 45.2360 4.3290 290° West 414 476 36,000  Level FlightAware
08:20AM 45.2690 4.1680 286° West 417 480 36,000  Level FlightAware
08:21AM 45.3140 3.9540 287° West 418 481 36,000  Level FlightAware
08:22AM 45.3340 3.8560 286° West 416 479 36,000  Level FlightAware
08:23AM 45.3680 3.6910 286° West 417 480 36,000  Level FlightAware
08:24AM 45.3890 3.5930 287° West 415 478 36,000  Level FlightAware
08:24AM 45.4110 3.4830 286° West 413 475 36,000  Level FlightAware
08:25AM 45.4320 3.3820 287° West 414 476 36,000  Level FlightAware
08:26AM 45.4550 3.2650 286° West 413 475 36,000  Level FlightAware
08:27AM 45.4810 3.1370 286° West 410 472 36,000  Level FlightAware
08:27AM 45.5000 3.0410 286° West 408 470 36,000  Level FlightAware
08:28AM 45.5250 2.9130 286° West 407 468 36,000  Level FlightAware
08:29AM 45.5440 2.8200 286° West 404 465 36,000  Level FlightAware
08:30AM 45.5730 2.6680 285° West 402 463 36,000  Level FlightAware
08:30AM 45.5960 2.5570 287° West 402 463 36,000  Level FlightAware
08:31AM 45.6170 2.4530 286° West 402 463 36,000  Level FlightAware
08:32AM 45.6380 2.3530 287° West 404 465 36,000  Level FlightAware
08:32AM 45.6620 2.2330 286° West 405 466 36,000  Level FlightAware
08:33AM 45.6830 2.1300 286° West 405 466 36,000  Level FlightAware
08:34AM 45.7070 2.0140 287° West 407 468 36,000  Level FlightAware
08:35AM 45.7270 1.9130 286° West 407 468 36,000  Level FlightAware
08:35AM 45.7510 1.7950 286° West 407 468 36,000  Level FlightAware
08:36AM 45.7690 1.7070 286° West 407 468 36,000  Level FlightAware
08:37AM 45.7940 1.5880 287° West 408 470 36,000  Level FlightAware
08:37AM 45.8180 1.4700 286° West 410 472 36,000  Level FlightAware
08:38AM 45.8430 1.3480 286° West 410 472 36,000  Level FlightAware
08:39AM 45.8660 1.2350 286° West 411 473 36,000  Level FlightAware
08:40AM 45.8840 1.1450 286° West 411 473 36,000  Level FlightAware
08:40AM 45.9020 1.0560 286° West 411 473 36,000  Level FlightAware
08:41AM 45.9240 0.9440 286° West 411 473 36,000  Level FlightAware
08:41AM 45.9710 0.8750 314° West 36,000  Level FlightAware
08:42AM 45.9820 0.8370 293° West 415 478 36,000  Level FlightAware
08:42AM 46.0050 0.7590 293° West 414 476 36,000  Level FlightAware
08:43AM 46.0450 0.6180 292° West 417 480 36,000  Level FlightAware
08:44AM 46.0750 0.5160 293° West 414 476 36,000  Level FlightAware
08:44AM 46.1070 0.4020 292° West 415 478 36,000  Level FlightAware
08:45AM 46.1370 0.2970 292° West 414 476 36,000  Level FlightAware
08:46AM 46.1700 0.1810 292° West 413 475 36,000  Level FlightAware
08:46AM 46.1990 0.0790 292° West 414 476 36,000  Level FlightAware
08:47AM 46.2280 -0.0250 292° West 416 479 36,000  Level FlightAware
08:48AM 46.2600 -0.1390 292° West 418 481 36,000  Level FlightAware
08:49AM 46.2880 -0.2420 292° West 417 480 36,000  Level FlightAware
08:49AM 46.3220 -0.3630 292° West 414 476 36,000  Level FlightAware
08:50AM 46.3500 -0.4660 292° West 413 475 36,000  Level FlightAware
08:51AM 46.3750 -0.5570 292° West 415 478 36,000  Level FlightAware
08:51AM 46.3878 -0.6039 292° West 414 476 36,000  Level FlightAware ADS-B
08:51AM 46.4130 -0.6970 291° West 412 474 36,000  Level FlightAware
08:52AM 46.4500 -0.8310 292° West 410 472 36,000  Level FlightAware
08:53AM 46.4790 -0.9410 291° West 409 471 36,000  Level FlightAware
08:54AM 46.5050 -1.0380 291° West 410 472 36,000  Level FlightAware
08:54AM 46.5340 -1.1470 291° West 410 472 36,000  Level FlightAware
08:55AM 46.5670 -1.2670 292° West 408 470 36,000  Level FlightAware
08:56AM 46.6000 -1.3660 296° West 416 479 36,000  Level FlightAware
08:57AM 46.6500 -1.4700 305° West 426 490 36,000  Level FlightAware
08:57AM 46.7050 -1.5540 314° West 433 498 36,000  Level FlightAware
08:58AM 46.7610 -1.6360 315° West 434 499 36,000  Level FlightAware
08:59AM 46.8160 -1.7200 314° West 435 501 36,000  Level FlightAware
08:59AM 46.8800 -1.8180 314° West 436 502 36,000  Level FlightAware
09:00AM 46.9370 -1.9050 314° West 438 504 36,000  Level FlightAware
09:01AM 46.9980 -2.0000 313° West 440 506 36,000  Level FlightAware
09:01AM 47.0540 -2.0860 314° West 442 509 36,000  Level FlightAware
09:02AM 47.1110 -2.1720 314° West 442 509 36,000  Level FlightAware
09:03AM 47.1760 -2.2710 314° West 440 506 36,000  Level FlightAware
09:03AM 47.2330 -2.3580 314° West 442 509 36,000  Level FlightAware
09:04AM 47.2950 -2.4550 313° West 442 509 36,000  Level FlightAware
09:05AM 47.3490 -2.5440 312° West 429 494 36,000  Level FlightAware
09:06AM 47.3830 -2.6460 296° West 421 484 36,000  Level FlightAware
09:06AM 47.4230 -2.7640 297° West 423 487 36,000  Level FlightAware
09:07AM 47.4580 -2.8690 296° West 426 490 36,000  Level FlightAware
09:08AM 47.5090 -3.0240 296° West 428 493 36,000  Level FlightAware
09:09AM 47.5450 -3.1320 296° West 431 496 36,000  Level FlightAware
09:09AM 47.5750 -3.2230 296° West 433 498 36,000  Level FlightAware
09:10AM 47.6060 -3.3190 296° West 436 502 36,000  Level FlightAware
09:10AM 47.6410 -3.4250 296° West 437 503 36,000  Level FlightAware
09:11AM 47.6800 -3.5470 295° West 437 503 36,000  Level FlightAware
09:12AM 47.7150 -3.6530 296° West 438 504 36,000  Level FlightAware
09:13AM 47.7550 -3.7780 295° West 439 505 36,000  Level FlightAware
09:13AM 47.7940 -3.9000 295° West 440 506 36,000  Level FlightAware
09:14AM 47.8260 -4.0000 296° West 438 504 36,000  Level FlightAware
09:15AM 47.8620 -4.1140 295° West 438 504 36,000  Level FlightAware
09:15AM 47.8970 -4.2260 295° West 439 505 36,000  Level FlightAware
09:16AM 47.9370 -4.3510 296° West 440 506 36,000  Level FlightAware
09:17AM 47.9720 -4.4630 295° West 438 504 36,000  Level FlightAware
09:17AM 48.0060 -4.5730 295° West 438 504 36,000  Level FlightAware
09:18AM 48.0430 -4.6920 295° West 438 504 36,000  Level FlightAware
09:19AM 48.0770 -4.8020 295° West 437 503 36,000  Level FlightAware
09:20AM 48.1100 -4.9110 294° West 436 502 36,000  Level FlightAware
09:20AM 48.1490 -5.0380 295° West 434 499 36,000  Level FlightAware
09:21AM 48.1830 -5.1490 295° West 436 502 36,000 -1,260 Level FlightAware
09:22AM 48.2115 -5.2423 295° West 482 555 34,500  Descending FlightAware UK
09:22AM 48.2190 -5.2660 295° West 437 503 36,000  Climbing FlightAware
09:22AM 48.2415 -5.3417 295° West 482 555 34,500  Descending FlightAware UK
09:22AM 48.2530 -5.3800 295° West 436 502 36,000  Climbing FlightAware
09:23AM 48.2714 -5.4409 295° West 484 557 34,500 -2,400 Descending FlightAware UK
09:23AM 48.2863 -5.4906 294° West 480 552 34,500 3,600 Level FlightAware UK
09:23AM 48.2910 -5.5070 294° West 435 501 36,000  Climbing FlightAware
09:23AM 48.3060 -5.5566 294° West 480 552 34,500 -2,580 Descending FlightAware UK
09:24AM 48.3208 -5.6061 294° West 478 550 34,500 3,900 Level FlightAware UK
09:24AM 48.3240 -5.6160 294° West 434 499 36,000  Climbing FlightAware
09:24AM 48.3404 -5.6722 294° West 484 557 34,500 -2,460 Descending FlightAware UK
09:24AM 48.3551 -5.7218 294° West 480 552 34,500 4,260 Level FlightAware UK
09:24AM 48.3560 -5.7250 294° West 434 499 36,000  Climbing FlightAware
09:25AM 48.3699 -5.7713 294° West 478 550 34,500 -2,760 Descending FlightAware UK
09:25AM 48.3846 -5.8208 294° West 476 548 34,500 3,000 Level FlightAware UK
09:25AM 48.3920 -5.8470 294° West 435 501 36,000  Climbing FlightAware
09:26AM 48.4089 -5.9030 294° West 478 550 34,500 -2,520 Descending FlightAware UK
09:26AM 48.4234 -5.9528 294° West 478 550 34,500 4,080 Level FlightAware UK
09:26AM 48.4240 -5.9560 294° West 436 502 36,000  Climbing FlightAware
09:26AM 48.4429 -6.0193 294° West 478 550 34,500  Descending FlightAware UK
09:27AM 48.4600 -6.0770 294° West 437 503 36,000  Climbing FlightAware
09:27AM 48.4770 -6.1362 294° West 480 552 34,500 -2,580 Descending FlightAware UK
09:27AM 48.4918 -6.1865 294° West 478 550 34,500 3,900 Level FlightAware UK
09:27AM 48.4950 -6.1960 294° West 440 506 36,000  Climbing FlightAware
09:28AM 48.5114 -6.2538 294° West 478 550 34,500  Descending FlightAware UK
09:28AM 48.5220 -6.2890 294° West 441 507 36,000  Climbing FlightAware
09:28AM 48.5262 -6.3044 294° West 478 550 34,500 -4,500 Descending FlightAware UK
09:28AM 48.5409 -6.3552 294° West 478 550 34,500  Level FlightAware UK
09:29AM 48.5556 -6.4062 294° West 478 550 34,500 3,000 Level FlightAware UK
09:29AM 48.5640 -6.4360 294° West 444 511 36,000  Climbing FlightAware
09:29AM 48.5799 -6.4916 294° West 480 552 34,500  Descending FlightAware UK
09:29AM 48.5870 -6.5150 294° West 445 512 36,000  Climbing FlightAware
09:29AM 48.5947 -6.5429 294° West 480 552 34,500 -5,040 Descending FlightAware UK
09:30AM 48.6045 -6.5772 294° West 482 555 34,500  Level FlightAware UK
09:30AM 48.6193 -6.6287 293° West 486 559 34,500 3,300 Level FlightAware UK
09:30AM 48.6250 -6.6490 293° West 446 513 36,000  Climbing FlightAware
09:30AM 48.6389 -6.6975 293° West 482 555 34,500 -2,760 Descending FlightAware UK
09:31AM 48.6537 -6.7490 294° West 482 555 34,500 2,520 Level FlightAware UK
09:31AM 48.6660 -6.7910 294° West 444 511 36,000  Climbing FlightAware
09:31AM 48.6831 -6.8520 294° West 484 557 34,500 -2,460 Descending FlightAware UK
09:31AM 48.6966 -6.9040 291° West 486 559 34,500 4,260 Level FlightAware UK
09:31AM 48.6950 -6.9080 291° West 438 504 36,000  Climbing FlightAware
09:32AM 48.6981 -6.9591 291° West 484 557 34,500 -2,760 Descending FlightAware UK
09:32AM 48.7021 -7.0131 276° West 482 555 34,500 3,000 Level FlightAware UK
09:32AM 48.7040 -7.0440 276° West 434 499 36,000  Climbing FlightAware
09:33AM 48.7086 -7.1036 276° West 480 552 34,500 -2,520 Descending FlightAware UK
09:33AM 48.7125 -7.1578 276° West 480 552 34,500 4,080 Level FlightAware UK
09:33AM 48.7130 -7.1640 276° West 433 498 36,000  Climbing FlightAware
09:33AM 48.7174 -7.2301 276° West 482 555 34,500 -2,400 Descending FlightAware UK
09:34AM 48.7212 -7.2843 276° West 482 555 34,500 4,500 Level FlightAware UK
09:34AM 48.7210 -7.2850 276° West 433 498 36,000  Climbing FlightAware
09:34AM 48.7249 -7.3385 276° West 482 555 34,500 -2,700 Descending FlightAware UK
09:34AM 48.7286 -7.3927 276° West 482 555 34,500 3,060 Level FlightAware UK
09:34AM 48.7300 -7.4160 276° West 432 497 36,000  Climbing FlightAware
09:35AM 48.7348 -7.4830 276° West 482 555 34,500 -2,460 Descending FlightAware UK
09:35AM 48.7384 -7.5370 276° West 480 552 34,500 4,260 Level FlightAware UK
09:35AM 48.7390 -7.5380 276° West 430 495 36,000  Climbing FlightAware
09:35AM 48.7421 -7.5910 276° West 478 550 34,500 -2,760 Descending FlightAware UK
09:36AM 48.7457 -7.6449 276° West 478 550 34,500 3,000 Level FlightAware UK
09:36AM 48.7480 -7.6770 276° West 430 495 36,000  Climbing FlightAware
09:36AM 48.7516 -7.7346 276° West 476 548 34,500 -2,520 Descending FlightAware UK
09:36AM 48.7553 -7.7884 276° West 476 548 34,500 4,080 Level FlightAware UK
09:36AM 48.7560 -7.7950 276° West 431 496 36,000  Climbing FlightAware
09:37AM 48.7601 -7.8603 276° West 478 550 34,500 -2,400 Descending FlightAware UK
09:37AM 48.7636 -7.9143 276° West 478 550 34,500 3,600 Level FlightAware UK
09:37AM 48.7640 -7.9230 276° West 431 496 36,000  Climbing FlightAware
09:37AM 48.7682 -7.9864 276° West 478 550 34,500 -2,580 Descending FlightAware UK
09:38AM 48.7716 -8.0400 276° West 478 550 34,500 3,900 Level FlightAware UK
09:38AM 48.7720 -8.0430 276° West 434 499 36,000  Climbing FlightAware
09:38AM 48.7761 -8.1126 276° West 478 550 34,500  Descending FlightAware UK
09:38AM 48.7780 -8.1430 275° West 435 501 36,000  Climbing FlightAware
09:38AM 48.7795 -8.1673 275° West 478 550 34,500 -4,500 Descending FlightAware UK
09:39AM 48.7828 -8.2220 275° West 478 550 34,500  Level FlightAware UK
09:39AM 48.7862 -8.2768 275° West 478 550 34,500 3,600 Level FlightAware UK
09:39AM 48.7860 -8.2840 275° West 436 502 36,000  Climbing FlightAware
09:39AM 48.7908 -8.3500 275° West 478 550 34,500 -2,580 Descending FlightAware UK
09:40AM 48.7941 -8.4051 275° West 480 552 34,500 3,900 Level FlightAware UK
09:40AM 48.7920 -8.3880 275° West 436 502 36,000  Climbing FlightAware
09:40AM 48.7984 -8.4788 275° West 480 552 34,500 -2,460 Descending FlightAware UK
09:40AM 48.8016 -8.5341 275° West 478 550 34,500 4,260 Level FlightAware UK
09:40AM 48.7980 -8.4910 275° West 436 502 36,000  Climbing FlightAware
09:41AM 48.8048 -8.5894 275° West 478 550 34,500 -2,760 Descending FlightAware UK
09:41AM 48.8081 -8.6446 275° West 478 550 34,500 2,520 Level FlightAware UK
09:41AM 48.8060 -8.6210 275° West 436 502 36,000  Climbing FlightAware
09:42AM 48.8145 -8.7552 275° West 478 550 34,500 -2,460 Descending FlightAware UK
09:42AM 48.8176 -8.8105 275° West 478 550 34,500 4,260 Level FlightAware UK
09:42AM 48.8120 -8.7250 275° West 436 502 36,000  Climbing FlightAware
09:42AM 48.8209 -8.8660 275° West 480 552 34,500 -2,760 Descending FlightAware UK
09:43AM 48.8240 -8.9215 275° West 480 552 34,500 3,600 Level FlightAware UK
09:43AM 48.8180 -8.8290 275° West 436 502 36,000  Climbing FlightAware
09:43AM 48.8280 -8.9956 275° West 482 555 34,500  Descending FlightAware UK
09:43AM 48.8240 -8.9320 275° West 436 502 36,000 1,200 Climbing FlightAware
09:44AM 48.8310 -9.0620 275° West 436 502 36,000  Level FlightAware
09:45AM 48.8370 -9.1660 275° West 436 502 36,000  Level FlightAware
09:45AM 48.8430 -9.2700 275° West 436 502 36,000  Level FlightAware
09:46AM 48.8490 -9.3730 275° West 436 502 36,000  Level FlightAware
09:47AM 48.8550 -9.4770 275° West 436 502 36,000  Level FlightAware
09:47AM 48.8610 -9.5810 275° West 436 502 36,000  Level FlightAware
09:48AM 48.8680 -9.7110 275° West 436 502 36,000  Level FlightAware
09:51AM 48.9326 -10.0903 285° West  Level Estimated
09:52AM 48.9613 -10.2618 284° West  Level Estimated
09:53AM 48.9897 -10.4334 284° West  Level Estimated
09:54AM 49.0179 -10.6053 284° West  Level Estimated
09:55AM 49.0459 -10.7773 284° West  Level Estimated
09:56AM 49.0736 -10.9495 284° West  Level Estimated
09:57AM 49.1010 -11.1220 284° West  Level Estimated
09:58AM 49.1282 -11.2946 284° West  Level Estimated
09:59AM 49.1551 -11.4674 283° West  Level Estimated
10:00AM 49.1818 -11.6403 283° West  Level Estimated
10:01AM 49.2082 -11.8135 283° West  Level Estimated
10:02AM 49.2344 -11.9869 283° West  Level Estimated
10:03AM 49.2603 -12.1604 283° West  Level Estimated
10:04AM 49.2859 -12.3341 283° West  Level Estimated
10:05AM 49.3113 -12.5080 283° West  Level Estimated
10:06AM 49.3364 -12.6821 283° West  Level Estimated
10:07AM 49.3612 -12.8563 282° West  Level Estimated
10:08AM 49.3858 -13.0308 282° West  Level Estimated
10:09AM 49.4101 -13.2054 282° West  Level Estimated
10:10AM 49.4342 -13.3801 282° West  Level Estimated
10:11AM 49.4580 -13.5551 282° West  Level Estimated
10:12AM 49.4815 -13.7302 282° West  Level Estimated
10:13AM 49.5047 -13.9055 282° West  Level Estimated
10:14AM 49.5277 -14.0809 281° West  Level Estimated
10:15AM 49.5505 -14.2565 281° West  Level Estimated
10:16AM 49.5729 -14.4323 281° West  Level Estimated
10:17AM 49.5953 -14.6092 281° West  Level Estimated
10:18AM 49.6173 -14.7863 281° West  Level Estimated
10:19AM 49.6391 -14.9636 281° West  Level Estimated
10:20AM 49.6606 -15.1410 281° West  Level Estimated
10:21AM 49.6819 -15.3186 281° West  Level Estimated
10:22AM 49.7029 -15.4963 280° West  Level Estimated
10:23AM 49.7236 -15.6741 280° West  Level Estimated
10:24AM 49.7440 -15.8522 280° West  Level Estimated
10:25AM 49.7641 -16.0303 280° West  Level Estimated
10:26AM 49.7840 -16.2087 280° West  Level Estimated
10:27AM 49.8036 -16.3871 280° West  Level Estimated
10:28AM 49.8230 -16.5657 280° West  Level Estimated
10:29AM 49.8420 -16.7445 279° West  Level Estimated
10:30AM 49.8608 -16.9234 279° West  Level Estimated
10:31AM 49.8793 -17.1024 279° West  Level Estimated
10:32AM 49.8975 -17.2815 279° West  Level Estimated
10:33AM 49.9155 -17.4608 279° West  Level Estimated
10:34AM 49.9331 -17.6396 279° West  Level Estimated
10:35AM 49.9505 -17.8185 279° West  Level Estimated
10:36AM 49.9675 -17.9976 278° West  Level Estimated
10:37AM 49.9843 -18.1768 278° West  Level Estimated
10:38AM 50.0008 -18.3560 278° West  Level Estimated
10:39AM 50.0171 -18.5354 278° West  Level Estimated
10:40AM 50.0330 -18.7150 278° West  Level Estimated
10:41AM 50.0487 -18.8946 278° West  Level Estimated
10:42AM 50.0641 -19.0744 278° West  Level Estimated
10:43AM 50.0793 -19.2543 278° West  Level Estimated
10:43AM 49.0000 -20.0000 274° West 437 503 36,000  Level ETMS Enhanced Traffic Management System
10:44AM 50.0941 -19.4343 277° West  Level Estimated
10:45AM 50.1087 -19.6144 277° West  Level Estimated
10:46AM 50.1230 -19.7946 277° West  Level Estimated
10:47AM 50.1370 -19.9749 277° West  Level Estimated
10:48AM 50.1507 -20.1553 277° West  Level Estimated
10:49AM 49.0488 -21.2939 273° West 437 503 36,000  Level FlightAware Transoceanic
10:50AM 49.0546 -21.4789 273° West 437 503 36,000  Level FlightAware Transoceanic
10:51AM 49.0600 -21.6640 273° West 437 503 36,000  Level FlightAware Transoceanic
10:52AM 49.0652 -21.8491 272° West 437 503 36,000  Level FlightAware Transoceanic
10:53AM 49.0701 -22.0343 272° West 437 503 36,000  Level FlightAware Transoceanic
10:54AM 49.0747 -22.2194 272° West 437 503 36,000  Level FlightAware Transoceanic
10:55AM 49.0790 -22.4047 272° West 437 503 36,000  Level FlightAware Transoceanic
10:56AM 49.0830 -22.5899 272° West 437 503 36,000  Level FlightAware Transoceanic
10:57AM 49.0868 -22.7752 272° West 437 503 36,000  Level FlightAware Transoceanic
10:58AM 49.0902 -22.9605 272° West 437 503 36,000  Level FlightAware Transoceanic
10:59AM 49.0933 -23.1458 271° West 437 503 36,000  Level FlightAware Transoceanic
11:00AM 49.0961 -23.3312 271° West 437 503 36,000  Level FlightAware Transoceanic
11:01AM 49.0986 -23.5166 271° West 437 503 36,000  Level FlightAware Transoceanic
11:02AM 49.1008 -23.7020 271° West 437 503 36,000  Level FlightAware Transoceanic
11:03AM 49.1028 -23.8874 271° West 437 503 36,000  Level FlightAware Transoceanic
11:04AM 49.1044 -24.0728 271° West 437 503 36,000  Level FlightAware Transoceanic
11:05AM 49.1058 -24.2582 271° West 437 503 36,000  Level FlightAware Transoceanic
11:06AM 49.1068 -24.4436 270° West 437 503 36,000  Level FlightAware Transoceanic
11:07AM 49.1075 -24.6291 270° West 437 503 36,000  Level FlightAware Transoceanic
11:08AM 49.1080 -24.8146 270° West 437 503 36,000  Level FlightAware Transoceanic
11:09AM 49.1081 -25.0000 270° West 437 503 36,000  Level FlightAware Transoceanic
11:10AM 49.1080 -25.1854 270° West 437 503 36,000  Level FlightAware Transoceanic
11:11AM 49.1075 -25.3709 270° West 437 503 36,000  Level FlightAware Transoceanic
11:12AM 49.1068 -25.5564 270° West 437 503 36,000  Level FlightAware Transoceanic
11:13AM 49.1058 -25.7418 269° West 437 503 36,000  Level FlightAware Transoceanic
11:14AM 49.1044 -25.9272 269° West 437 503 36,000  Level FlightAware Transoceanic
11:15AM 49.1028 -26.1126 269° West 437 503 36,000  Level FlightAware Transoceanic
11:16AM 49.1008 -26.2980 269° West 437 503 36,000  Level FlightAware Transoceanic
11:17AM 49.0986 -26.4834 269° West 437 503 36,000  Level FlightAware Transoceanic
11:18AM 49.0961 -26.6688 269° West 437 503 36,000  Level FlightAware Transoceanic
11:19AM 49.0933 -26.8542 269° West 437 503 36,000  Level FlightAware Transoceanic
11:20AM 49.0902 -27.0395 268° West 437 503 36,000  Level FlightAware Transoceanic
11:21AM 49.0868 -27.2248 268° West 437 503 36,000  Level FlightAware Transoceanic
11:22AM 49.0830 -27.4101 268° West 437 503 36,000  Level FlightAware Transoceanic
11:23AM 49.0790 -27.5953 268° West 437 503 36,000  Level FlightAware Transoceanic
11:24AM 49.0747 -27.7806 268° West 437 503 36,000  Level FlightAware Transoceanic
11:25AM 49.0701 -27.9657 268° West 437 503 36,000  Level FlightAware Transoceanic
11:26AM 49.0652 -28.1509 268° West 437 503 36,000  Level FlightAware Transoceanic
11:27AM 49.0600 -28.3360 267° West 437 503 36,000  Level FlightAware Transoceanic
11:28AM 49.0546 -28.5211 267° West 437 503 36,000  Level FlightAware Transoceanic
11:29AM 49.0488 -28.7061 267° West 437 503 36,000  Level FlightAware Transoceanic
11:30AM 49.0427 -28.8911 267° West 437 503 36,000  Level FlightAware Transoceanic
11:31AM 49.0363 -29.0761 267° West 437 503 36,000  Level FlightAware Transoceanic
11:32AM 49.0296 -29.2610 267° West 437 503 36,000  Level FlightAware Transoceanic
11:33AM 49.0227 -29.4458 267° West 437 503 36,000  Level FlightAware Transoceanic
11:34AM 49.0154 -29.6306 267° West 437 503 36,000  Level FlightAware Transoceanic
11:35AM 49.0079 -29.8153 266° West 437 503 36,000  Level FlightAware Transoceanic
11:36AM 49.0003 -29.9925 266° West  Level FlightAware Approximate
11:37AM 48.9925 -30.1695 266° West  Level FlightAware Approximate
11:38AM 48.9910 -30.1618 265° West  Level FlightAware Approximate
11:39AM 48.9808 -30.3385 265° West  Level FlightAware Approximate
11:40AM 48.9703 -30.5161 265° West  Level FlightAware Approximate
11:41AM 48.9596 -30.6937 265° West  Level FlightAware Approximate
11:42AM 48.9486 -30.8711 265° West  Level FlightAware Approximate
11:43AM 48.9373 -31.0485 265° West  Level FlightAware Approximate
11:44AM 48.9257 -31.2258 264° West  Level FlightAware Approximate
11:45AM 48.9139 -31.4030 264° West  Level FlightAware Approximate
11:46AM 48.9018 -31.5802 264° West  Level FlightAware Approximate
11:47AM 48.8894 -31.7572 264° West  Level FlightAware Approximate
11:48AM 48.8767 -31.9342 264° West  Level FlightAware Approximate
11:49AM 48.8638 -32.1110 264° West  Level FlightAware Approximate
11:50AM 48.8506 -32.2878 264° West  Level FlightAware Approximate
11:51AM 48.8372 -32.4645 263° West  Level FlightAware Approximate
11:52AM 48.8234 -32.6410 263° West  Level FlightAware Approximate
11:53AM 48.8094 -32.8175 263° West  Level FlightAware Approximate
11:54AM 48.7952 -32.9939 263° West  Level FlightAware Approximate
11:55AM 48.7806 -33.1702 263° West  Level FlightAware Approximate
11:56AM 48.7658 -33.3464 263° West  Level FlightAware Approximate
11:57AM 48.7508 -33.5224 263° West  Level FlightAware Approximate
11:58AM 48.7354 -33.6984 263° West  Level FlightAware Approximate
11:59AM 48.7198 -33.8743 262° West  Level FlightAware Approximate
12:00PM 48.7039 -34.0500 262° West  Level FlightAware Approximate
12:01PM 48.6878 -34.2257 262° West  Level FlightAware Approximate
12:02PM 48.6714 -34.4012 262° West  Level FlightAware Approximate
12:03PM 48.6547 -34.5766 262° West  Level FlightAware Approximate
12:04PM 48.6378 -34.7519 262° West  Level FlightAware Approximate
12:05PM 48.6205 -34.9271 262° West  Level FlightAware Approximate
12:06PM 48.6031 -35.1021 261° West  Level FlightAware Approximate
12:07PM 48.5853 -35.2770 261° West  Level FlightAware Approximate
12:08PM 48.5673 -35.4519 261° West  Level FlightAware Approximate
12:09PM 48.5491 -35.6265 261° West  Level FlightAware Approximate
12:10PM 48.5305 -35.8011 261° West  Level FlightAware Approximate
12:11PM 48.5117 -35.9755 261° West  Level FlightAware Approximate
12:12PM 48.4927 -36.1498 261° West  Level FlightAware Approximate
12:13PM 48.4734 -36.3240 261° West  Level FlightAware Approximate
12:14PM 48.4538 -36.4980 260° West  Level FlightAware Approximate
12:15PM 48.4339 -36.6719 260° West  Level FlightAware Approximate
12:16PM 48.4138 -36.8457 260° West  Level FlightAware Approximate
12:17PM 48.3934 -37.0193 260° West  Level FlightAware Approximate
12:18PM 48.3728 -37.1928 260° West  Level FlightAware Approximate
12:19PM 48.3519 -37.3661 260° West  Level FlightAware Approximate
12:20PM 48.3308 -37.5393 260° West  Level FlightAware Approximate
12:21PM 48.3094 -37.7124 260° West  Level FlightAware Approximate
12:22PM 48.2877 -37.8853 259° West  Level FlightAware Approximate
12:23PM 48.2658 -38.0580 259° West  Level FlightAware Approximate
12:24PM 48.2436 -38.2307 259° West  Level FlightAware Approximate
12:25PM 48.2211 -38.4031 259° West  Level FlightAware Approximate
12:26PM 48.1984 -38.5754 259° West  Level FlightAware Approximate
12:27PM 48.1754 -38.7476 259° West  Level FlightAware Approximate
12:28PM 48.1522 -38.9196 259° West  Level FlightAware Approximate
12:29PM 48.1287 -39.0914 258° West  Level FlightAware Approximate
12:30PM 48.1050 -39.2631 258° West  Level FlightAware Approximate
12:31PM 48.0810 -39.4346 258° West  Level FlightAware Approximate
12:32PM 48.0568 -39.6060 258° West  Level FlightAware Approximate
12:33PM 48.0323 -39.7772 258° West  Level FlightAware Approximate
12:34PM 48.0075 -39.9486 258° West  Level FlightAware Approximate
12:35PM 47.9813 -40.1194 257° West  Level FlightAware Approximate
12:36PM 47.9543 -40.2898 257° West  Level FlightAware Approximate
12:37PM 47.9271 -40.4601 257° West  Level FlightAware Approximate
12:38PM 47.8996 -40.6302 257° West  Level FlightAware Approximate
12:39PM 47.8718 -40.8001 256° West  Level FlightAware Approximate
12:40PM 47.8438 -40.9698 256° West  Level FlightAware Approximate
12:41PM 47.8156 -41.1393 256° West  Level FlightAware Approximate
12:42PM 47.7871 -41.3087 256° West  Level FlightAware Approximate
12:43PM 47.7584 -41.4779 256° West  Level FlightAware Approximate
12:44PM 47.7294 -41.6469 256° West  Level FlightAware Approximate
12:45PM 47.7001 -41.8156 256° West  Level FlightAware Approximate
12:46PM 47.6707 -41.9842 256° West  Level FlightAware Approximate
12:47PM 47.6409 -42.1526 255° West  Level FlightAware Approximate
12:48PM 47.6110 -42.3209 255° West  Level FlightAware Approximate
12:49PM 47.5807 -42.4889 255° West  Level FlightAware Approximate
12:50PM 47.5510 -42.6570 256° West  Level FlightAware Approximate
12:51PM 47.5216 -42.8252 256° West  Level FlightAware Approximate
12:52PM 47.4920 -42.9932 255° West  Level FlightAware Approximate
12:53PM 47.4622 -43.1610 255° West  Level FlightAware Approximate
12:54PM 47.4321 -43.3286 255° West  Level FlightAware Approximate
12:55PM 47.4017 -43.4960 255° West  Level FlightAware Approximate
12:56PM 47.3711 -43.6632 255° West  Level FlightAware Approximate
12:57PM 47.3403 -43.8302 255° West  Level FlightAware Approximate
12:58PM 47.3092 -43.9970 255° West  Level FlightAware Approximate
12:59PM 47.2779 -44.1637 255° West  Level FlightAware Approximate
01:00PM 47.2463 -44.3301 254° West  Level FlightAware Approximate
01:01PM 47.2145 -44.4963 254° West  Level FlightAware Approximate
01:02PM 47.1825 -44.6623 254° West  Level FlightAware Approximate
01:03PM 47.1502 -44.8282 254° West  Level FlightAware Approximate
01:04PM 47.1177 -44.9938 254° West  Level FlightAware Approximate
01:05PM 47.0849 -45.1592 254° West  Level FlightAware Approximate
01:06PM 47.0518 -45.3243 254° West  Level FlightAware Approximate
01:07PM 47.0184 -45.4893 254° West  Level FlightAware Approximate
01:08PM 46.9848 -45.6540 253° West  Level FlightAware Approximate
01:09PM 46.9510 -45.8186 253° West  Level FlightAware Approximate
01:10PM 46.9169 -45.9829 253° West  Level FlightAware Approximate
01:11PM 46.8826 -46.1470 253° West  Level FlightAware Approximate
01:12PM 46.8481 -46.3110 253° West  Level FlightAware Approximate
01:13PM 46.8133 -46.4747 253° West  Level FlightAware Approximate
01:14PM 46.7783 -46.6381 253° West  Level FlightAware Approximate
01:15PM 46.7431 -46.8014 253° West  Level FlightAware Approximate
01:16PM 46.7076 -46.9645 252° West  Level FlightAware Approximate
01:17PM 46.6719 -47.1273 252° West  Level FlightAware Approximate
01:18PM 46.6360 -47.2900 252° West  Level FlightAware Approximate
01:19PM 46.5998 -47.4524 252° West  Level FlightAware Approximate
01:20PM 46.5635 -47.6146 252° West  Level FlightAware Approximate
01:21PM 46.5269 -47.7766 252° West  Level FlightAware Approximate
01:22PM 46.4900 -47.9383 252° West  Level FlightAware Approximate
01:23PM 46.4529 -48.0999 252° West  Level FlightAware Approximate
01:24PM 46.4156 -48.2612 252° West  Level FlightAware Approximate
01:25PM 46.3781 -48.4223 251° West  Level FlightAware Approximate
01:26PM 46.3404 -48.5832 251° West  Level FlightAware Approximate
01:27PM 46.3024 -48.7438 251° West  Level FlightAware Approximate
01:28PM 46.2642 -48.9043 251° West  Level FlightAware Approximate
01:28PM 46.0167 -49.8167 250° West 440 506 38,000  Level Gander Center
01:29PM 46.2258 -49.0645 251° West  Level FlightAware Approximate
01:29PM 45.9833 -50.0000 255° West 450 518 38,000  Level Gander Center
01:30PM 46.1871 -49.2244 251° West  Level FlightAware Approximate
01:30PM 45.9500 -50.1500 252° West 440 506 38,000  Level Gander Center
01:31PM 46.1480 -49.3851 251° West  Level FlightAware Approximate
01:31PM 45.9333 -50.3500 263° West 440 506 38,000  Level Gander Center
01:32PM 46.1087 -49.5455 251° West  Level FlightAware Approximate
01:32PM 45.9167 -50.5000 261° West 440 506 38,000  Level Gander Center
01:33PM 46.0692 -49.7056 250° West  Level FlightAware Approximate
01:33PM 45.9000 -50.6667 262° West 430 495 38,000  Level Gander Center
01:34PM 46.0295 -49.8656 250° West  Level FlightAware Approximate
01:34PM 45.8667 -50.8333 254° West 430 495 38,000  Level Gander Center
01:35PM 45.8500 -51.0167 263° West 440 506 38,000  Level Gander Center
01:36PM 45.8333 -51.1833 262° West 430 495 38,000  Level Moncton Center
01:37PM 45.8000 -51.3500 254° West 440 506 38,000  Level Moncton Center
01:38PM 45.7833 -51.5333 263° West 440 506 38,000  Level Moncton Center
01:39PM 45.7500 -51.7000 254° West 440 506 38,000  Level Moncton Center
01:40PM 45.7500 -51.8833 270° West 440 506 38,000  Level Moncton Center
01:41PM 45.7167 -52.0333 252° West 440 506 38,000  Level Moncton Center
01:42PM 45.6833 -52.2500 258° West 440 506 38,000  Level Gander Center
01:43PM 45.6667 -52.4167 262° West 440 506 38,000  Level Gander Center
01:49PM 45.5430 -53.4460 262° West 432 497 38,000  Level FlightAware
01:50PM 45.5240 -53.5750 258° West 432 497 38,000  Level FlightAware
01:50PM 45.5090 -53.6750 258° West 433 498 38,000  Level FlightAware
01:51PM 45.4950 -53.7700 258° West 433 498 38,000  Level FlightAware
01:52PM 45.4810 -53.8650 258° West 433 498 38,000  Level FlightAware
01:52PM 45.4670 -53.9600 258° West 433 498 38,000  Level FlightAware
01:53PM 45.4360 -54.1600 258° West 430 495 38,000  Level FlightAware
01:54PM 45.4200 -54.2680 258° West 430 495 38,000  Level FlightAware
01:54PM 45.4020 -54.3820 257° West 432 497 38,000  Level FlightAware
01:55PM 45.3880 -54.4690 257° West 433 498 38,000  Level FlightAware
01:56PM 45.3630 -54.6300 258° West 433 498 38,000  Level FlightAware
01:57PM 45.3490 -54.7180 257° West 433 498 38,000  Level FlightAware
01:57PM 45.3310 -54.8320 257° West 434 499 38,000  Level FlightAware
01:58PM 45.3150 -54.9270 257° West 434 499 38,000  Level FlightAware
01:59PM 45.2960 -55.0450 257° West 434 499 38,000  Level FlightAware
01:59PM 45.2810 -55.1390 257° West 434 499 38,000  Level FlightAware
02:00PM 45.2650 -55.2340 257° West 434 499 38,000  Level FlightAware
02:01PM 45.2500 -55.3280 257° West 434 499 38,000  Level FlightAware
02:01PM 45.2350 -55.4230 257° West 434 499 38,000  Level FlightAware
02:02PM 45.2160 -55.5410 257° West 434 499 38,000  Level FlightAware
02:03PM 45.2000 -55.6350 256° West 434 499 38,000  Level FlightAware
02:04PM 45.1850 -55.7300 257° West 434 499 38,000  Level FlightAware
02:04PM 45.1690 -55.8240 256° West 434 499 38,000  Level FlightAware
02:05PM 45.1540 -55.9180 257° West 434 499 38,000  Level FlightAware
02:06PM 45.1350 -56.0360 257° West 434 499 38,000  Level FlightAware
02:06PM 45.1190 -56.1310 257° West 434 499 38,000  Level FlightAware
02:08PM 45.0230 -56.6540 256° West 440 506 38,000  Level FlightAware
02:09PM 45.0040 -56.7610 256° West 439 505 38,000  Level FlightAware
02:09PM 44.9840 -56.8750 256° West 440 506 38,000  Level FlightAware
02:10PM 44.9620 -56.9970 256° West 441 507 38,000  Level FlightAware
02:11PM 44.9420 -57.1070 256° West 440 506 38,000  Level FlightAware
02:12PM 44.9190 -57.2330 256° West 439 505 38,000  Level FlightAware
02:12PM 44.8980 -57.3450 255° West 439 505 38,000  Level FlightAware
02:13PM 44.8750 -57.4690 255° West 440 506 38,000 120 Level FlightAware
02:14PM 44.8550 -57.5790 256° West 438 504 38,200 720 Climbing FlightAware
02:14PM 44.8350 -57.6870 255° West 429 494 39,000 1,260 Climbing FlightAware
02:15PM 44.8120 -57.8090 255° West 417 480 40,000 660 Climbing FlightAware
02:16PM 44.7910 -57.9160 255° West 422 486 40,000  Level FlightAware
02:16PM 44.7690 -58.0330 255° West 424 488 40,000  Level FlightAware
02:17PM 44.7490 -58.1400 255° West 422 486 40,000  Level FlightAware
02:18PM 44.7280 -58.2460 254° West 423 487 40,000  Level FlightAware
02:19PM 44.7050 -58.3660 255° West 422 486 40,000  Level FlightAware
02:19PM 44.6840 -58.4710 254° West 423 487 40,000  Level FlightAware
02:20PM 44.6630 -58.5780 255° West 422 486 40,000  Level FlightAware
02:21PM 44.6400 -58.6960 255° West 423 487 40,000  Level FlightAware
02:21PM 44.6190 -58.8020 254° West 424 488 40,000  Level FlightAware
02:22PM 44.5950 -58.9210 254° West 424 488 40,000  Level FlightAware
02:23PM 44.5740 -59.0280 255° West 423 487 40,000  Level FlightAware
02:23PM 44.5500 -59.1450 254° West 422 486 40,000  Level FlightAware
02:24PM 44.5290 -59.2490 254° West 422 486 40,000  Level FlightAware
02:25PM 44.5070 -59.3550 254° West 422 486 40,000  Level FlightAware
02:26PM 44.4830 -59.4740 254° West 421 484 40,000  Level FlightAware
02:26PM 44.4610 -59.5810 254° West 422 486 40,000  Level FlightAware
02:27PM 44.4390 -59.6860 254° West 423 487 40,000  Level FlightAware
02:28PM 44.4150 -59.8020 254° West 425 489 40,000  Level FlightAware
02:28PM 44.3930 -59.9060 254° West 426 490 40,000  Level FlightAware
02:29PM 44.3670 -60.0280 253° West 428 493 40,000  Level FlightAware
02:30PM 44.3440 -60.1360 253° West 427 491 40,000  Level FlightAware
02:30PM 44.3200 -60.2510 254° West 427 491 40,000  Level FlightAware
02:31PM 44.2970 -60.3560 253° West 426 490 40,000  Level FlightAware
02:32PM 44.2760 -60.4530 253° West 427 491 40,000  Level FlightAware
02:33PM 44.2490 -60.5810 254° West 424 488 40,000  Level FlightAware
02:33PM 44.2310 -60.6620 253° West 423 487 40,000  Level FlightAware
02:34PM 44.2060 -60.7740 253° West 423 487 40,000  Level FlightAware
02:35PM 44.1790 -60.9000 253° West 420 483 40,000  Level FlightAware
02:35PM 44.1590 -60.9850 252° West 420 483 40,000  Level FlightAware
02:36PM 44.1330 -61.0940 252° West 420 483 40,000  Level FlightAware
02:37PM 44.1130 -61.1820 252° West 420 483 40,000  Level FlightAware
02:37PM 44.0930 -61.2690 252° West 420 483 40,000  Level FlightAware
02:38PM 44.0720 -61.3570 252° West 420 483 40,000  Level FlightAware
02:39PM 44.0520 -61.4440 252° West 420 483 40,000  Level FlightAware
02:39PM 44.0310 -61.5320 252° West 420 483 40,000  Level FlightAware
02:42PM 43.9280 -62.0060 253° West 418 481 40,000  Level FlightAware
02:43PM 43.9080 -62.0930 252° West 418 481 40,000  Level FlightAware
02:43PM 43.8880 -62.1800 252° West 418 481 40,000  Level FlightAware
02:44PM 43.8670 -62.2660 251° West 418 481 40,000  Level FlightAware
02:45PM 43.8470 -62.3530 252° West 418 481 40,000  Level FlightAware
02:47PM 43.7420 -62.7940 252° West 417 480 40,000  Level FlightAware
02:48PM 43.7220 -62.8800 252° West 417 480 40,000  Level FlightAware
02:49PM 43.6667 -63.0500 252° West 420 483 40,000  Level Gander Center
02:50PM 43.6500 -63.2167 262° West 430 495 40,000  Level Gander Center
02:51PM 43.6167 -63.3667 253° West 420 483 40,000  Level Moncton Center
02:52PM 43.5833 -63.5167 253° West 420 483 40,000  Level Moncton Center
02:58PM 43.4220 -64.4450 253° West 435 501 40,000  Level FlightAware
02:58PM 43.4000 -64.5530 254° West 435 501 40,000  Level FlightAware
02:59PM 43.3790 -64.6590 255° West 436 502 40,000  Level FlightAware
03:00PM 43.3540 -64.7820 254° West 437 503 40,000  Level FlightAware
03:00PM 43.3320 -64.8890 254° West 441 507 40,000  Level FlightAware
03:01PM 43.3070 -65.0120 254° West 441 507 40,000  Level FlightAware
03:02PM 43.2850 -65.1190 254° West 442 509 40,000  Level FlightAware
03:02PM 43.2620 -65.2300 254° West 443 510 40,000  Level FlightAware
03:03PM 43.2370 -65.3510 254° West 443 510 40,000  Level FlightAware
03:04PM 43.2140 -65.4580 254° West 441 507 40,000  Level FlightAware
03:05PM 43.1890 -65.5800 254° West 443 510 40,000  Level FlightAware
03:05PM 43.1660 -65.6870 254° West 442 509 40,000  Level FlightAware
03:06PM 43.1430 -65.7960 254° West 440 506 40,000  Level FlightAware
03:07PM 43.1200 -65.9020 253° West 437 503 40,000  Level FlightAware
03:07PM 43.0950 -66.0220 254° West 436 502 40,000  Level FlightAware
03:08PM 43.0680 -66.1430 253° West 436 502 40,000  Level FlightAware
03:09PM 43.0460 -66.2470 254° West 436 502 40,000  Level FlightAware
03:09PM 43.0220 -66.3540 253° West 435 501 40,000  Level FlightAware
03:10PM 42.9960 -66.4730 253° West 436 502 40,000  Level FlightAware
03:11PM 42.9740 -66.5720 253° West 435 501 40,000  Level FlightAware
03:12PM 42.9480 -66.6910 253° West 437 503 40,000  Level FlightAware
03:12PM 42.9170 -66.8290 253° West 437 503 40,000  Level FlightAware
03:13PM 42.8960 -66.9250 253° West 40,000  Level FlightAware
03:14PM 42.8580 -67.0930 253° West 443 510 40,000  Level FlightAware
03:15PM 42.8340 -67.1990 253° West 443 510 40,000  Level FlightAware
03:15PM 42.8100 -67.2910 250° West 446 513 40,000  Level FlightAware
03:16PM 42.7700 -67.4130 246° West 446 513 40,000  Level FlightAware
03:17PM 42.7310 -67.5120 242° Southwest 447 514 40,000  Level FlightAware
03:18PM 42.6930 -67.6190 244° Southwest 447 514 40,000  Level FlightAware
03:18PM 42.6620 -67.7050 244° Southwest 447 514 40,000  Level FlightAware
03:19PM 42.6100 -67.8480 244° Southwest 449 517 40,000  Level FlightAware
03:20PM 42.5750 -67.9450 244° Southwest 449 517 40,000  Level FlightAware
03:21PM 42.5200 -68.0960 244° Southwest 449 517 40,000  Level FlightAware
03:21PM 42.4820 -68.2000 244° Southwest 447 514 40,000  Level FlightAware
03:22PM 42.4400 -68.3140 244° Southwest 435 501 40,000  Level FlightAware
03:23PM 42.4050 -68.4080 243° Southwest 436 502 40,000  Level FlightAware
03:23PM 42.3690 -68.5070 244° Southwest 437 503 40,000  Level FlightAware
03:24PM 42.3270 -68.6180 243° Southwest 437 503 40,000  Level FlightAware
03:25PM 42.2920 -68.7130 244° Southwest 437 503 40,000  Level FlightAware
03:25PM 42.2540 -68.8130 243° Southwest 440 506 40,000  Level FlightAware
03:26PM 42.2130 -68.9240 244° Southwest 439 505 40,000  Level FlightAware
03:27PM 42.1750 -69.0230 243° Southwest 438 504 40,000  Level FlightAware
03:28PM 42.1340 -69.1320 243° Southwest 438 504 40,000  Level FlightAware
03:28PM 42.0970 -69.2300 243° Southwest 438 504 40,000  Level FlightAware
03:29PM 42.0540 -69.3410 242° Southwest 441 507 40,000  Level FlightAware
03:30PM 42.0170 -69.4400 243° Southwest 443 510 40,000  Level FlightAware
03:30PM 41.9780 -69.5400 242° Southwest 444 511 40,000  Level FlightAware
03:31PM 41.9360 -69.6500 243° Southwest 443 510 40,000  Level FlightAware
03:32PM 41.8990 -69.7460 243° Southwest 446 513 40,000  Level FlightAware
03:33PM 41.8490 -69.8500 237° Southwest 441 507 40,000  Level FlightAware
03:33PM 41.8080 -69.9310 236° Southwest 441 507 40,000  Level FlightAware
03:34PM 41.7580 -70.0300 236° Southwest 443 510 40,000  Level FlightAware
03:35PM 41.7090 -70.1260 236° Southwest 444 511 40,000  Level FlightAware
03:35PM 41.6650 -70.2120 236° Southwest 446 513 40,000  Level FlightAware
03:36PM 41.6190 -70.3030 236° Southwest 445 512 40,000  Level FlightAware
03:37PM 41.5700 -70.4130 239° Southwest 447 514 40,000 -780 Level FlightAware
03:37PM 41.5280 -70.5110 240° Southwest 450 518 38,900 -2,100 Descending FlightAware
03:38PM 41.4800 -70.6190 239° Southwest 450 518 37,100 -2,400 Descending FlightAware
03:39PM 41.4340 -70.7280 241° Southwest 441 507 35,500 -1,980 Descending FlightAware
03:39PM 41.3950 -70.8220 241° Southwest 431 496 34,300 -2,520 Descending FlightAware
03:40PM 41.3640 -70.9050 244° Southwest 442 509 32,200 -3,000 Descending FlightAware
03:41PM 41.3180 -70.9950 236° Southwest 442 509 30,300 -2,220 Descending FlightAware
03:43PM 41.2030 -71.2720 241° Southwest 415 478 26,500 -1,800 Descending FlightAware
03:43PM 41.1780 -71.3590 249° West 388 447 25,800 -1,380 Descending FlightAware
03:44PM 41.1530 -71.4500 250° West 333 383 24,600 -1,620 Descending FlightAware
03:45PM 41.1260 -71.5400 248° West 329 379 23,400 -1,140 Descending FlightAware
03:46PM 41.1040 -71.6180 250° West 327 376 22,900 -840 Descending FlightAware
03:47PM 41.1360 -71.7290 291° West 347 399 22,000 -780 Descending FlightAware
03:47PM 41.1400 -71.7570 281° West 336 387 22,000  Level FlightAware
03:47PM 41.1420 -71.8250 272° West 336 387 22,000  Level FlightAware
03:48PM 41.1450 -71.8950 273° West 336 387 22,000  Level FlightAware
03:49PM 41.1490 -71.9830 273° West 336 387 22,000  Level FlightAware
03:50PM 41.1510 -72.0530 272° West 336 387 22,000  Level FlightAware
03:50PM 41.1540 -72.1230 273° West 336 387 22,000 -1,740 Level FlightAware
03:54PM 40.9480 -72.5210 236° Southwest 306 352 14,300 -1,800 Descending FlightAware
03:55PM 40.9690 -72.5710 299° West 305 351 14,200 -1,200 Descending FlightAware
03:55PM 40.9630 -72.6010 255° West 289 333 13,300 -1,800 Descending FlightAware
03:56PM 40.9630 -72.6010 255° West 282 325 12,400 -1,020 Descending FlightAware
03:56PM 40.9020 -72.7030 232° Southwest 280 322 12,000 -300 Descending FlightAware
03:57PM 40.8580 -72.7760 231° Southwest 279 321 12,000  Level FlightAware
03:57PM 40.8540 -72.8040 259° West 284 327 12,000 -720 Level FlightAware
03:58PM 40.8520 -72.8600 267° West 281 323 11,400 -1,320 Descending FlightAware
03:59PM 40.8220 -72.9180 236° Southwest 278 320 10,300 -1,440 Descending FlightAware
03:59PM 40.8030 -72.9300 206° Southwest 278 320 10,000 -1,380 Descending FlightAware
03:59PM 40.7700 -72.9500 205° Southwest 278 320 9,300 -1,200 Descending FlightAware
04:00PM 40.7390 -72.9690 205° Southwest 276 318 8,900 -1,140 Descending FlightAware
04:00PM 40.7040 -72.9900 204° Southwest 272 313 8,300 -1,380 Descending FlightAware
04:01PM 40.6830 -73.0020 203° Southwest 269 310 7,900 -1,200 Descending FlightAware
04:01PM 40.6580 -73.0170 204° Southwest 266 306 7,500 -1,320 Descending FlightAware
04:01PM 40.6200 -73.0380 203° Southwest 263 303 6,700 -1,440 Descending FlightAware
04:02PM 40.5890 -73.0570 205° Southwest 259 298 6,100 -1,200 Descending FlightAware
04:02PM 40.5790 -73.0740 232° Southwest 253 291 5,800 -1,440 Descending FlightAware
04:02PM 40.5760 -73.0910 257° West 250 288 5,500 -1,500 Descending FlightAware
04:03PM 40.5880 -73.1320 291° West 256 295 4,800 -1,200 Descending FlightAware
04:03PM 40.6070 -73.1530 320° Northwest 255 293 4,500 -900 Descending FlightAware
04:04PM 40.6350 -73.1900 315° West 246 283 4,000 -600 Descending FlightAware
04:04PM 40.6460 -73.2090 307° West 247 284 4,000  Level FlightAware
04:05PM 40.6680 -73.2450 309° West 245 282 4,000  Level FlightAware
04:05PM 40.6890 -73.2690 319° Northwest 248 285 4,000  Level FlightAware
04:05PM 40.7150 -73.2990 319° Northwest 248 285 4,000  Level FlightAware
04:06PM 40.7360 -73.3230 319° Northwest 231 266 4,000 -240 Level FlightAware
04:06PM 40.7590 -73.3490 319° Northwest 214 246 3,800 -720 Descending FlightAware
04:07PM 40.7800 -73.3730 319° Northwest 212 244 3,300 -780 Descending FlightAware
04:07PM 40.7970 -73.3940 317° Northwest 208 239 3,100 -360 Descending FlightAware
04:08PM 40.8160 -73.4170 318° Northwest 209 241 3,000 -480 Descending FlightAware
04:08PM 40.8220 -73.4330 296° West 212 244 2,800 -960 Descending FlightAware
04:08PM 40.8250 -73.4760 275° West 210 242 2,300 -960 Descending FlightAware
04:09PM 40.8260 -73.4940 274° West 209 241 2,100 -420 Descending FlightAware
04:09PM 40.8270 -73.5310 272° West 209 241 2,000 -120 Descending FlightAware
04:10PM 40.8290 -73.5610 275° West 209 241 2,000  Level FlightAware
04:10PM 40.8180 -73.5820 235° Southwest 214 246 2,000  Level FlightAware
04:10PM 40.8120 -73.5920 232° Southwest 214 246 2,000  Level FlightAware
04:11PM 40.7960 -73.6230 236° Southwest 206 237 2,000  Level FlightAware
04:11PM 40.7770 -73.6510 228° Southwest 188 216 2,000  Level FlightAware
04:12PM 40.7550 -73.6690 212° Southwest 187 215 2,000  Level FlightAware
04:12PM 40.7370 -73.6830 211° Southwest 186 214 2,000 -480 Level FlightAware
04:12PM 40.7140 -73.7010 211° Southwest 189 217 1,600 -840 Descending FlightAware
04:13PM 40.7040 -73.7090 211° Southwest 179 206 1,400 -900 Descending FlightAware
04:13PM 40.6860 -73.7230 211° Southwest 158 182 1,000 -900 Descending FlightAware
04:14PM 40.6690 -73.7360 210° Southwest 143 165 600 -780 Descending FlightAware
04:14PM 40.6550 -73.7470 211° Southwest 145 167 300 -720 Descending FlightAware